createdAt,value
2023-01-13T00:02:26.144Z,5.27
2023-01-13T00:05:28.489Z,5.33
2023-01-13T00:08:30.376Z,5.86
2023-01-13T00:11:32.355Z,5.50
2023-01-13T00:14:34.829Z,5.62
2023-01-13T00:17:36.708Z,5.31
2023-01-13T00:20:38.585Z,5.36
2023-01-13T00:23:40.748Z,5.93
2023-01-13T00:26:42.626Z,5.60
2023-01-13T00:29:44.587Z,6.01
2023-01-13T00:32:46.551Z,5.79
2023-01-13T00:35:57.874Z,5.56
2023-01-13T00:38:59.962Z,5.11
2023-01-13T00:42:20.337Z,5.55
2023-01-13T00:45:22.178Z,5.55
2023-01-13T00:48:24.193Z,5.47
2023-01-13T00:51:26.421Z,4.81
2023-01-13T00:54:28.315Z,5.62
2023-01-13T00:57:30.524Z,5.98
2023-01-13T01:00:33.038Z,5.58
2023-01-13T01:03:37.497Z,5.89
2023-01-13T01:06:39.365Z,5.04
2023-01-13T01:09:41.247Z,5.56
2023-01-13T01:12:43.144Z,5.56
2023-01-13T01:15:45.021Z,5.44
2023-01-13T01:18:47.547Z,5.72
2023-01-13T01:21:49.359Z,5.43
2023-01-13T01:24:51.200Z,5.29
2023-01-13T01:27:53.757Z,5.75
2023-01-13T01:30:55.652Z,5.74
2023-01-13T01:33:57.504Z,5.71
2023-01-13T01:36:59.350Z,5.69
2023-01-13T01:40:01.323Z,5.03
2023-01-13T01:43:22.016Z,5.74
2023-01-13T01:46:23.991Z,5.52
2023-01-13T01:49:32.954Z,5.30
2023-01-13T01:52:35.718Z,5.43
2023-01-13T01:55:37.566Z,5.41
2023-01-13T01:58:42.261Z,5.73
2023-01-13T02:01:44.275Z,5.75
2023-01-13T02:04:51.167Z,5.80
2023-01-13T02:07:53.563Z,5.47
2023-01-13T02:10:55.628Z,5.75
2023-01-13T02:13:57.440Z,5.18
2023-01-13T02:17:17.957Z,5.76
2023-01-13T02:20:19.785Z,5.38
2023-01-13T02:23:52.371Z,6.09
2023-01-13T02:26:54.295Z,5.62
2023-01-13T02:30:26.371Z,5.98
2023-01-13T02:33:37.797Z,5.72
2023-01-13T02:36:50.532Z,6.12
2023-01-13T02:39:55.498Z,5.95
2023-01-13T02:43:39.310Z,5.68
2023-01-13T02:46:44.655Z,5.56
2023-01-13T02:50:09.788Z,5.83
2023-01-13T02:53:15.817Z,5.61
2023-01-13T02:56:17.717Z,5.42
2023-01-13T02:59:19.658Z,5.21
2023-01-13T03:02:21.975Z,5.02
2023-01-13T03:05:23.980Z,5.37
2023-01-13T03:08:28.732Z,5.58
2023-01-13T03:11:33.143Z,5.33
2023-01-13T03:14:49.411Z,4.05
2023-01-13T03:18:10.189Z,5.16
2023-01-13T03:21:23.126Z,5.59
2023-01-13T03:24:30.608Z,4.55
2023-01-13T03:27:34.050Z,5.70
2023-01-13T03:30:43.242Z,5.40
2023-01-13T03:33:53.485Z,5.64
2023-01-13T03:36:55.350Z,5.19
2023-01-13T03:40:29.765Z,5.65
2023-01-13T03:43:54.948Z,4.47
2023-01-13T03:46:56.932Z,5.41
2023-01-13T03:50:14.288Z,5.69
2023-01-13T03:53:20.684Z,5.28
2023-01-13T03:56:24.416Z,5.02
2023-01-13T03:59:27.971Z,5.13
2023-01-13T04:02:36.799Z,5.21
2023-01-13T04:05:40.191Z,5.63
2023-01-13T04:08:44.123Z,5.88
2023-01-13T04:11:54.130Z,5.51
2023-01-13T04:14:55.929Z,5.20
2023-01-13T04:18:11.648Z,4.82
2023-01-13T04:21:13.633Z,5.01
2023-01-13T04:24:15.561Z,4.75
2023-01-13T04:27:17.535Z,4.94
2023-01-13T04:30:19.530Z,5.60
2023-01-13T04:33:21.410Z,5.82
2023-01-13T04:36:27.763Z,6.01
2023-01-13T04:39:29.726Z,6.32
2023-01-13T04:42:31.694Z,5.78
2023-01-13T04:45:34.019Z,5.36
2023-01-13T04:48:35.951Z,5.38
2023-01-13T04:51:37.939Z,5.47
2023-01-13T04:54:39.855Z,5.17
2023-01-13T04:57:41.829Z,4.99
2023-01-13T05:00:43.654Z,5.48
2023-01-13T05:03:45.950Z,5.10
2023-01-13T05:06:47.925Z,5.29
2023-01-13T05:09:49.794Z,5.92
2023-01-13T05:13:10.652Z,5.92
2023-01-13T05:16:35.734Z,5.91
2023-01-13T05:19:41.051Z,5.75
2023-01-13T05:23:01.742Z,5.89
2023-01-13T05:26:03.745Z,5.28
2023-01-13T05:29:05.585Z,5.16
2023-01-13T05:32:08.707Z,5.90
2023-01-13T05:35:10.612Z,5.38
2023-01-13T05:38:12.617Z,6.06
2023-01-13T05:41:33.306Z,5.39
2023-01-13T05:44:35.161Z,5.74
2023-01-13T05:47:37.179Z,4.98
2023-01-13T05:50:39.168Z,5.53
2023-01-13T05:53:41.103Z,5.13
2023-01-13T05:56:43.072Z,5.77
2023-01-13T05:59:44.982Z,5.62
2023-01-13T06:02:47.039Z,5.71
2023-01-13T06:05:50.422Z,5.47
2023-01-13T06:08:52.315Z,5.74
2023-01-13T06:11:54.212Z,5.34
2023-01-13T06:14:56.046Z,5.38
2023-01-13T06:17:58.012Z,5.51
2023-01-13T06:20:59.955Z,5.52
2023-01-13T06:24:02.058Z,5.20
2023-01-13T06:27:05.045Z,5.30
2023-01-13T06:30:08.628Z,4.97
2023-01-13T06:33:12.775Z,5.26
2023-01-13T06:36:17.085Z,4.86
2023-01-13T06:39:20.161Z,5.93
2023-01-13T06:42:40.843Z,5.54
2023-01-13T06:45:43.663Z,6.02
2023-01-13T06:48:45.837Z,5.44
2023-01-13T06:51:47.898Z,6.23
2023-01-13T06:54:49.870Z,6.36
2023-01-13T06:57:52.622Z,6.16
2023-01-13T07:00:54.756Z,5.86
2023-01-13T07:03:58.189Z,6.33
2023-01-13T07:07:00.107Z,6.47
2023-01-13T07:10:02.237Z,5.87
2023-01-13T07:13:23.343Z,5.64
2023-01-13T07:16:28.043Z,5.19
2023-01-13T07:19:30.117Z,5.59
2023-01-13T07:22:32.101Z,5.88
2023-01-13T07:25:33.986Z,5.59
2023-01-13T07:28:36.137Z,4.75
2023-01-13T07:31:39.231Z,4.79
2023-01-13T07:34:41.450Z,4.76
2023-01-13T07:37:43.488Z,5.77
2023-01-13T07:40:45.722Z,6.27
2023-01-13T07:43:47.878Z,5.11
2023-01-13T07:46:49.740Z,6.00
2023-01-13T07:49:51.729Z,6.39
2023-01-13T07:52:53.602Z,6.44
2023-01-13T07:55:57.022Z,6.74
2023-01-13T07:58:59.775Z,6.91
2023-01-13T08:02:01.950Z,6.26
2023-01-13T08:05:04.136Z,6.69
2023-01-13T08:08:06.026Z,6.54
2023-01-13T08:11:08.411Z,6.45
2023-01-13T08:14:10.396Z,5.49
2023-01-13T08:17:12.659Z,6.53
2023-01-13T08:20:15.026Z,6.11
2023-01-13T08:23:17.478Z,6.33
2023-01-13T08:26:19.414Z,6.05
2023-01-13T08:29:21.414Z,5.80
2023-01-13T08:32:23.337Z,5.86
2023-01-13T08:35:25.557Z,6.17
2023-01-13T08:38:29.798Z,5.83
2023-01-13T08:41:50.316Z,5.51
2023-01-13T08:44:52.966Z,5.78
2023-01-13T08:47:54.863Z,5.54
2023-01-13T08:51:06.668Z,5.03
2023-01-13T08:54:08.858Z,4.92
2023-01-13T08:57:10.944Z,5.58
2023-01-13T09:00:13.186Z,5.82
2023-01-13T09:03:15.161Z,4.48
2023-01-13T09:06:17.160Z,5.58
2023-01-13T09:09:19.001Z,5.67
2023-01-13T09:12:39.635Z,5.87
2023-01-13T09:15:42.411Z,5.69
2023-01-13T09:18:44.591Z,6.17
2023-01-13T09:21:46.532Z,5.05
2023-01-13T09:24:48.545Z,5.98
2023-01-13T09:27:50.449Z,5.47
2023-01-13T09:30:52.425Z,5.57
2023-01-13T09:34:13.128Z,6.05
2023-01-13T09:37:15.098Z,6.33
2023-01-13T09:40:17.489Z,4.94
2023-01-13T09:43:41.367Z,4.66
2023-01-13T09:46:44.213Z,5.25
2023-01-13T09:49:46.216Z,5.14
2023-01-13T09:52:48.151Z,4.47
2023-01-13T09:55:50.142Z,4.39
2023-01-13T09:58:52.398Z,4.42
2023-01-13T10:01:58.619Z,4.72
2023-01-13T10:05:15.077Z,4.48
2023-01-13T10:08:16.884Z,5.21
2023-01-13T10:11:38.218Z,4.29
2023-01-13T10:14:41.932Z,5.22
2023-01-13T10:17:55.964Z,5.85
2023-01-13T10:21:08.527Z,5.78
2023-01-13T10:24:25.139Z,5.02
2023-01-13T10:27:36.837Z,6.33
2023-01-13T10:30:40.372Z,6.10
2023-01-13T10:33:42.452Z,6.63
2023-01-13T10:36:59.917Z,6.40
2023-01-13T10:40:02.097Z,6.65
2023-01-13T10:43:06.589Z,6.53
2023-01-13T10:46:12.992Z,6.46
2023-01-13T10:49:44.421Z,5.90
2023-01-13T10:52:59.994Z,5.47
2023-01-13T10:56:03.212Z,4.97
2023-01-13T10:59:24.105Z,5.73
2023-01-13T11:02:30.668Z,5.95
2023-01-13T11:05:32.928Z,6.27
2023-01-13T11:08:43.128Z,6.27
2023-01-13T11:11:45.631Z,5.40
2023-01-13T11:14:47.537Z,5.32
2023-01-13T11:17:51.914Z,5.88
2023-01-13T11:20:53.947Z,6.50
2023-01-13T11:24:14.688Z,5.24
2023-01-13T11:27:21.984Z,5.91
2023-01-13T11:30:30.296Z,5.72
2023-01-13T11:33:37.005Z,5.97
2023-01-13T11:36:41.635Z,5.40
2023-01-13T11:40:03.964Z,5.48
2023-01-13T11:43:11.818Z,4.93
2023-01-13T11:46:13.671Z,5.96
2023-01-13T11:49:26.670Z,5.72
2023-01-13T11:52:33.152Z,5.77
2023-01-13T11:55:56.326Z,5.16
2023-01-13T11:59:17.072Z,5.71
2023-01-13T12:02:18.960Z,5.64
2023-01-13T12:05:27.012Z,5.53
2023-01-13T12:08:48.318Z,5.70
2023-01-13T12:12:14.912Z,5.45
2023-01-13T12:15:19.724Z,6.22
2023-01-13T12:18:40.571Z,5.51
2023-01-13T12:21:51.774Z,5.63
2023-01-13T12:25:07.318Z,6.46
2023-01-13T12:28:35.827Z,5.26
2023-01-13T12:31:38.468Z,5.90
2023-01-13T12:34:47.421Z,6.64
2023-01-13T12:37:52.307Z,5.95
2023-01-13T12:41:14.475Z,6.29
2023-01-13T12:44:20.429Z,6.72
2023-01-13T12:47:43.615Z,6.10
2023-01-13T12:50:45.688Z,6.08
2023-01-13T12:53:47.586Z,5.64
2023-01-13T12:56:49.585Z,5.57
2023-01-13T13:00:15.019Z,5.73
2023-01-13T13:03:23.882Z,6.35
2023-01-13T13:06:25.783Z,6.86
2023-01-13T13:09:27.763Z,6.73
2023-01-13T13:12:51.718Z,6.51
2023-01-13T13:15:53.893Z,7.20
2023-01-13T13:19:16.075Z,6.53
2023-01-13T13:22:26.892Z,7.12
2023-01-13T13:25:28.904Z,7.00
2023-01-13T13:28:34.180Z,7.38
2023-01-13T13:31:40.317Z,7.37
2023-01-13T13:34:48.800Z,7.54
2023-01-13T13:38:22.683Z,7.70
2023-01-13T13:41:43.533Z,7.50
2023-01-13T13:45:04.652Z,6.98
2023-01-13T13:48:39.178Z,7.28
2023-01-13T13:51:45.223Z,7.86
2023-01-13T13:54:49.389Z,7.60
2023-01-13T13:57:52.289Z,7.46
2023-01-13T14:00:54.450Z,7.74
2023-01-13T14:04:22.773Z,7.56
2023-01-13T14:07:24.659Z,6.96
2023-01-13T14:10:34.166Z,6.95
2023-01-13T14:13:36.148Z,7.01
2023-01-13T14:16:38.185Z,7.02
2023-01-13T14:19:46.049Z,7.49
2023-01-13T14:22:48.654Z,7.46
2023-01-13T14:25:52.827Z,7.66
2023-01-13T14:28:55.606Z,7.89
2023-01-13T14:31:57.545Z,7.02
2023-01-13T14:34:59.678Z,7.74
2023-01-13T14:38:02.061Z,7.78
2023-01-13T14:41:18.080Z,8.27
2023-01-13T14:44:20.012Z,8.35
2023-01-13T14:47:28.483Z,7.23
2023-01-13T14:50:32.861Z,7.53
2023-01-13T14:53:34.749Z,7.96
2023-01-13T14:56:44.308Z,7.34
2023-01-13T14:59:46.489Z,6.86
2023-01-13T15:02:49.382Z,7.28
2023-01-13T15:05:52.128Z,7.74
2023-01-13T15:08:54.270Z,8.20
2023-01-13T15:11:58.849Z,8.08
2023-01-13T15:15:01.063Z,8.14
2023-01-13T15:18:09.535Z,7.15
2023-01-13T15:21:11.440Z,7.90
2023-01-13T15:24:13.411Z,8.13
2023-01-13T15:27:18.998Z,7.85
2023-01-13T15:30:22.503Z,7.86
2023-01-13T15:33:24.513Z,7.94
2023-01-13T15:36:27.906Z,7.76
2023-01-13T15:39:29.867Z,7.86
2023-01-13T15:42:55.071Z,7.99
2023-01-13T15:46:15.452Z,7.47
2023-01-13T15:49:27.485Z,7.61
2023-01-13T15:52:29.512Z,7.78
2023-01-13T15:55:35.557Z,7.63
2023-01-13T15:58:37.643Z,7.72
2023-01-13T16:01:39.770Z,7.75
2023-01-13T16:04:41.719Z,7.73
2023-01-13T16:07:43.578Z,7.72
2023-01-13T16:10:45.521Z,7.82
2023-01-13T16:13:47.608Z,7.16
2023-01-13T16:16:49.539Z,7.85
2023-01-13T16:19:51.833Z,7.88
2023-01-13T16:22:53.888Z,7.60
2023-01-13T16:25:56.117Z,7.72
2023-01-13T16:28:58.262Z,7.51
2023-01-13T16:32:00.215Z,7.37
2023-01-13T16:35:02.295Z,7.32
2023-01-13T16:38:04.219Z,7.86
2023-01-13T16:41:06.394Z,7.29
2023-01-13T16:44:08.235Z,7.25
2023-01-13T16:47:12.659Z,8.14
2023-01-13T16:50:23.227Z,8.27
2023-01-13T16:53:25.319Z,8.18
2023-01-13T16:56:28.465Z,8.15
2023-01-13T16:59:30.561Z,8.12
2023-01-13T17:02:32.565Z,7.68
2023-01-13T17:05:39.364Z,8.05
2023-01-13T17:08:41.199Z,7.64
2023-01-13T17:11:43.278Z,7.56
2023-01-13T17:14:45.193Z,8.00
2023-01-13T17:17:52.085Z,8.12
2023-01-13T17:20:54.123Z,8.19
2023-01-13T17:23:56.076Z,8.19
2023-01-13T17:26:59.011Z,8.05
2023-01-13T17:30:01.040Z,8.17
2023-01-13T17:33:03.017Z,8.52
2023-01-13T17:36:05.192Z,8.09
2023-01-13T17:39:07.026Z,7.89
2023-01-13T17:42:09.093Z,8.37
2023-01-13T17:45:12.351Z,8.30
2023-01-13T17:48:14.422Z,7.66
2023-01-13T17:51:16.840Z,8.00
2023-01-13T17:54:18.772Z,8.36
2023-01-13T17:57:20.743Z,8.81
2023-01-13T18:00:22.716Z,8.27
2023-01-13T18:03:24.652Z,7.41
2023-01-13T18:06:26.667Z,7.21
2023-01-13T18:09:28.650Z,8.43
2023-01-13T18:12:30.622Z,8.69
2023-01-13T18:15:32.552Z,8.40
2023-01-13T18:18:34.544Z,8.63
2023-01-13T18:21:55.311Z,8.80
2023-01-13T18:25:15.856Z,8.14
2023-01-13T18:28:17.761Z,8.42
2023-01-13T18:31:19.817Z,8.45
2023-01-13T18:34:21.803Z,7.79
2023-01-13T18:37:23.773Z,7.70
2023-01-13T18:40:25.700Z,7.69
2023-01-13T18:43:27.630Z,8.37
2023-01-13T18:46:29.679Z,8.42
2023-01-13T18:49:31.695Z,8.61
2023-01-13T18:52:33.681Z,8.98
2023-01-13T18:55:37.377Z,8.67
2023-01-13T18:58:43.672Z,7.69
2023-01-13T19:01:45.897Z,7.99
2023-01-13T19:04:49.647Z,7.44
2023-01-13T19:07:52.090Z,8.13
2023-01-13T19:10:53.994Z,8.41
2023-01-13T19:13:56.009Z,8.97
2023-01-13T19:16:58.052Z,9.14
2023-01-13T19:20:00.501Z,9.08
2023-01-13T19:23:02.463Z,8.18
2023-01-13T19:26:05.331Z,8.25
2023-01-13T19:29:08.521Z,8.30
2023-01-13T19:32:10.971Z,8.44
2023-01-13T19:35:17.244Z,7.90
2023-01-13T19:38:19.081Z,7.68
2023-01-13T19:41:44.113Z,8.38
2023-01-13T19:45:04.675Z,8.19
2023-01-13T19:48:08.462Z,7.85
2023-01-13T19:51:10.665Z,8.29
2023-01-13T19:54:12.613Z,8.10
2023-01-13T19:57:14.722Z,8.42
2023-01-13T20:00:21.114Z,8.94
2023-01-13T20:03:24.568Z,8.73
2023-01-13T20:06:26.505Z,9.18
2023-01-13T20:09:29.982Z,8.88
2023-01-13T20:12:32.082Z,7.91
2023-01-13T20:15:34.035Z,8.47
2023-01-13T20:18:37.344Z,8.80
2023-01-13T20:21:39.919Z,9.26
2023-01-13T20:24:41.891Z,8.77
2023-01-13T20:27:44.038Z,8.65
2023-01-13T20:30:46.428Z,8.94
2023-01-13T20:33:51.475Z,8.45
2023-01-13T20:36:53.440Z,8.28
2023-01-13T20:39:57.450Z,8.67
2023-01-13T20:42:59.355Z,8.64
2023-01-13T20:46:01.227Z,8.26
2023-01-13T20:49:03.257Z,7.67
2023-01-13T20:52:09.464Z,8.43
2023-01-13T20:55:11.454Z,8.46
2023-01-13T20:58:13.344Z,8.03
2023-01-13T21:01:15.231Z,7.62
2023-01-13T21:04:17.299Z,8.38
2023-01-13T21:07:19.167Z,8.40
2023-01-13T21:10:20.999Z,7.92
2023-01-13T21:13:41.655Z,7.24
2023-01-13T21:16:43.533Z,8.20
2023-01-13T21:19:45.463Z,8.29
2023-01-13T21:22:47.744Z,8.52
2023-01-13T21:25:49.811Z,8.96
2023-01-13T21:28:51.685Z,8.59
2023-01-13T21:31:54.581Z,8.57
2023-01-13T21:34:58.854Z,8.78
2023-01-13T21:38:00.970Z,8.21
2023-01-13T21:41:06.965Z,8.01
2023-01-13T21:44:31.187Z,8.23
2023-01-13T21:47:48.282Z,8.10
2023-01-13T21:50:50.217Z,8.40
2023-01-13T21:53:53.305Z,8.47
2023-01-13T21:56:55.423Z,7.90
2023-01-13T21:59:57.493Z,8.60
2023-01-13T22:03:00.282Z,8.59
2023-01-13T22:06:02.461Z,8.18
2023-01-13T22:09:04.755Z,7.31
2023-01-13T22:12:06.626Z,7.85
2023-01-13T22:15:09.100Z,7.66
2023-01-13T22:18:11.033Z,7.60
2023-01-13T22:21:12.959Z,8.24
2023-01-13T22:24:14.822Z,8.17
2023-01-13T22:27:18.957Z,7.36
2023-01-13T22:30:25.086Z,7.01
2023-01-13T22:33:26.960Z,7.11
2023-01-13T22:36:28.955Z,7.85
2023-01-13T22:39:30.888Z,7.12
2023-01-13T22:42:32.772Z,7.46
2023-01-13T22:45:34.718Z,7.37
2023-01-13T22:48:37.053Z,7.35
2023-01-13T22:51:39.265Z,8.19
2023-01-13T22:54:41.368Z,7.80
2023-01-13T22:57:48.204Z,7.82
2023-01-13T23:00:50.627Z,7.35
2023-01-13T23:03:52.593Z,7.93
2023-01-13T23:06:54.484Z,8.15
2023-01-13T23:09:56.393Z,8.67
2023-01-13T23:12:58.194Z,8.19
2023-01-13T23:16:04.010Z,8.86
2023-01-13T23:19:06.601Z,9.00
2023-01-13T23:22:08.505Z,9.30
2023-01-13T23:25:10.639Z,8.85
2023-01-13T23:28:12.472Z,8.52
2023-01-13T23:31:16.222Z,8.23
2023-01-13T23:34:18.097Z,8.16
2023-01-13T23:37:19.957Z,8.26
2023-01-13T23:40:21.989Z,7.26
2023-01-13T23:43:23.983Z,8.19
2023-01-13T23:46:26.483Z,7.22
2023-01-13T23:49:28.362Z,8.41
2023-01-13T23:52:30.293Z,7.77
2023-01-13T23:55:32.216Z,8.22
2023-01-13T23:58:34.874Z,8.44
